Time;durP1;ratioP1;P1;durP2;ratioP2;P2;SDS_P1;SDS_P2;PMS_P1;PMS_P2;Temp;Humidity;BMP_temperature;BMP_pressure;BME280_temperature;BME280_humidity;BME280_pressure;Samples;Min_cycle;Max_cycle;Signal;HPM_P1;HPM_P2
2024/01/30 00:00:52;;;;;;;;;;;3.20;99.90;;;-146.41;100.00;57768.22;4982412;28;1352;-73
2024/01/30 00:03:19;;;;;;;;;;;3.20;99.90;;;-146.41;100.00;57768.22;4982723;28;1348;-72
2024/01/30 00:05:46;;;;;;;;;;;3.20;99.90;;;-146.41;100.00;57768.22;4982305;28;1734;-72
2024/01/30 00:08:13;;;;;;;;;;;3.20;99.90;;;-146.41;100.00;57768.22;4982650;28;1369;-72
2024/01/30 00:10:40;;;;;;;;;;;3.20;99.90;;;-146.41;100.00;57768.22;4998545;28;1369;-72
2024/01/30 00:13:07;;;;;;;;;;;3.20;99.90;;;-146.41;100.00;57768.22;4982808;28;1982;-72
2024/01/30 00:15:34;;;;;;;;;;;3.20;99.90;;;-146.41;100.00;57768.22;4982686;28;1500;-71
2024/01/30 00:18:01;;;;;;;;;;;3.20;99.90;;;-146.41;100.00;57768.22;4982647;28;1361;-72
2024/01/30 00:20:28;;;;;;;;;;;3.10;99.90;;;-146.41;100.00;57768.22;4982437;28;1349;-71
2024/01/30 00:22:55;;;;;;;;;;;3.20;99.90;;;-146.41;100.00;57768.22;4981747;28;1294;-72
2024/01/30 00:25:22;;;;;;;;;;;3.10;99.90;;;-146.41;100.00;57768.22;4981445;28;1444;-72
2024/01/30 00:27:49;;;;;;;;;;;3.10;99.90;;;-146.41;100.00;57768.22;4982459;28;1281;-71
2024/01/30 00:30:16;;;;;;;;;;;3.10;99.90;;;-146.41;100.00;57768.22;4981999;28;1337;-72
2024/01/30 00:32:43;;;;;;;;;;;3.00;99.90;;;-146.41;100.00;57768.22;4982053;28;1930;-71
2024/01/30 00:35:10;;;;;;;;;;;2.90;99.90;;;-146.41;100.00;57768.22;4986585;28;1357;-72
2024/01/30 00:37:37;;;;;;;;;;;2.80;99.90;;;-146.41;100.00;57768.22;5012391;28;1353;-72
2024/01/30 00:40:22;;;;;;;;;;;2.70;99.90;;;-146.41;100.00;57768.22;4995211;28;1301;-72
2024/01/30 00:42:48;;;;;;;;;;;2.60;99.90;;;-146.41;100.00;57768.22;4979311;28;1443;-72
2024/01/30 00:45:16;;;;;;;;;;;2.60;99.90;;;-146.41;100.00;57768.22;4998107;28;1344;-72
2024/01/30 00:47:43;;;;;;;;;;;2.70;99.90;;;-146.41;100.00;57768.22;5012637;28;1344;-72
2024/01/30 00:50:11;;;;;;;;;;;2.70;99.90;;;-146.41;100.00;57768.22;4982104;28;1306;-71
2024/01/30 00:52:39;;;;;;;;;;;2.70;99.90;;;-146.41;100.00;57768.22;4980101;28;1910;-72
2024/01/30 00:55:06;;;;;;;;;;;2.70;99.90;;;-146.41;100.00;57768.22;4980341;28;1346;-71
2024/01/30 00:57:33;;;;;;;;;;;2.70;99.90;;;-146.41;100.00;57768.22;4982027;28;1145;-72
2024/01/30 00:59:59;;;;;;;;;;;2.70;99.90;;;-146.41;100.00;57768.22;4980266;28;1390;-72
2024/01/30 01:02:26;;;;;;;;;;;2.70;99.90;;;-146.41;100.00;57768.22;4996643;28;1869;-71
2024/01/30 01:04:53;;;;;;;;;;;2.60;99.90;;;-146.41;100.00;57768.22;4964315;28;1363;-72
2024/01/30 01:07:20;;;;;;;;;;;2.40;99.90;;;-146.41;100.00;57768.22;4979961;28;1365;-72
2024/01/30 01:09:47;;;;;;;;;;;2.40;99.90;;;-146.41;100.00;57768.22;4980027;28;1051;-72
2024/01/30 01:12:14;;;;;;;;;;;2.30;99.90;;;-146.41;100.00;57768.22;4981481;28;1992;-72
2024/01/30 01:14:41;;;;;;;;;;;2.40;99.90;;;-146.41;100.00;57768.22;4979418;28;1631;-72
2024/01/30 01:17:08;;;;;;;;;;;2.30;99.90;;;-146.41;100.00;57768.22;4977590;28;1574;-72
2024/01/30 01:19:35;;;;;;;;;;;2.30;99.90;;;-146.41;100.00;57768.22;4978475;28;1365;-72
2024/01/30 01:22:03;;;;;;;;;;;2.40;99.90;;;-146.41;100.00;57768.22;4995082;28;1368;-73
2024/01/30 01:24:34;;;;;;;;;;;2.40;99.90;;;-146.41;100.00;57768.22;4979575;28;1372;-71
2024/01/30 01:27:01;;;;;;;;;;;2.50;99.90;;;-146.41;100.00;57768.22;4976447;28;1509;-72
2024/01/30 01:29:29;;;;;;;;;;;2.60;99.90;;;-146.41;100.00;57768.22;4983246;28;1587;-72
2024/01/30 01:31:56;;;;;;;;;;;2.60;99.90;;;-146.41;100.00;57768.22;4981526;28;2043;-72
2024/01/30 01:34:26;;;;;;;;;;;2.60;99.90;;;-146.41;100.00;57768.22;4983389;28;1384;-72
2024/01/30 01:36:56;;;;;;;;;;;2.60;99.90;;;-146.41;100.00;57768.22;4965166;28;1652;-72
2024/01/30 01:39:23;;;;;;;;;;;2.70;99.90;;;-146.41;100.00;57768.22;4996079;28;1306;-72
2024/01/30 01:41:51;;;;;;;;;;;2.80;99.90;;;-146.41;100.00;57768.22;4982250;28;1370;-71
2024/01/30 01:44:18;;;;;;;;;;;2.90;99.90;;;-146.41;100.00;57768.22;4980628;28;1349;-72
2024/01/30 01:46:45;;;;;;;;;;;3.00;99.90;;;-146.41;100.00;57768.22;4980954;28;1620;-72
2024/01/30 01:49:12;;;;;;;;;;;3.10;99.90;;;-146.41;100.00;57768.22;4978372;28;1303;-72
2024/01/30 01:51:40;;;;;;;;;;;3.20;99.90;;;-146.41;100.00;57768.22;5012962;28;1366;-72
2024/01/30 01:54:08;;;;;;;;;;;3.20;99.90;;;-146.41;100.00;57768.22;4978107;28;2042;-72
2024/01/30 01:56:36;;;;;;;;;;;3.20;99.90;;;-146.41;100.00;57768.22;5013189;28;1662;-72
2024/01/30 01:59:08;;;;;;;;;;;3.20;99.90;;;-146.41;100.00;57768.22;5014618;28;1679;-71
2024/01/30 02:01:39;;;;;;;;;;;3.30;99.90;;;-146.41;100.00;57768.22;5010408;28;1335;-73
2024/01/30 02:04:07;;;;;;;;;;;3.40;99.90;;;-146.41;100.00;57768.22;4978830;28;1276;-72
2024/01/30 02:06:34;;;;;;;;;;;3.50;99.90;;;-146.41;100.00;57768.22;4979547;28;1260;-71
2024/01/30 02:09:01;;;;;;;;;;;3.60;99.90;;;-146.41;100.00;57768.22;4981247;28;1584;-71
2024/01/30 02:11:28;;;;;;;;;;;3.70;99.90;;;-146.41;100.00;57768.22;5011330;28;1397;-71
2024/01/30 02:13:55;;;;;;;;;;;4.00;99.90;;;-146.41;100.00;57768.22;4994863;28;1903;-72
2024/01/30 02:16:22;;;;;;;;;;;4.40;99.90;;;-146.41;100.00;57768.22;4981556;28;1371;-73
2024/01/30 02:18:49;;;;;;;;;;;4.50;99.90;;;-146.41;100.00;57768.22;4978140;28;1509;-72
2024/01/30 02:21:18;;;;;;;;;;;5.00;99.90;;;-146.41;100.00;57768.22;4975303;28;1283;-70
2024/01/30 02:23:46;;;;;;;;;;;5.40;99.90;;;-146.41;100.00;57768.22;4996599;28;1406;-72
2024/01/30 02:26:13;;;;;;;;;;;5.70;99.90;;;-146.41;100.00;57768.22;4981787;28;1433;-72
2024/01/30 02:28:40;;;;;;;;;;;5.90;99.90;;;-146.41;100.00;57768.22;4980601;28;1231;-72
2024/01/30 02:31:07;;;;;;;;;;;6.00;99.90;;;-146.41;100.00;57768.22;4980280;28;1411;-70
2024/01/30 02:33:34;;;;;;;;;;;6.10;99.90;;;-146.41;100.00;57768.22;4995325;28;1906;-72
2024/01/30 02:36:01;;;;;;;;;;;6.10;99.90;;;-146.41;100.00;57768.22;4980797;28;1549;-72
2024/01/30 02:38:28;;;;;;;;;;;6.30;99.90;;;-146.41;100.00;57768.22;4979406;28;1255;-72
2024/01/30 02:40:56;;;;;;;;;;;6.30;99.90;;;-146.41;100.00;57768.22;4979078;28;1227;-72
2024/01/30 02:43:23;;;;;;;;;;;6.40;99.90;;;-146.41;100.00;57768.22;4995493;28;1300;-72
2024/01/30 02:45:50;;;;;;;;;;;6.30;99.90;;;-146.41;100.00;57768.22;4981354;28;1337;-72
2024/01/30 02:48:17;;;;;;;;;;;6.30;99.90;;;-146.41;100.00;57768.22;4979210;28;1213;-72
2024/01/30 02:50:44;;;;;;;;;;;6.50;99.90;;;-146.41;100.00;57768.22;5013476;28;1235;-72
2024/01/30 02:53:11;;;;;;;;;;;6.50;99.90;;;-146.41;100.00;57768.22;4981592;28;1907;-70
2024/01/30 02:55:41;;;;;;;;;;;6.50;99.90;;;-146.41;100.00;57768.22;4977685;28;1317;-71
2024/01/30 02:58:14;;;;;;;;;;;6.40;99.90;;;-146.41;100.00;57768.22;4974644;28;1208;-70
2024/01/30 03:00:41;;;;;;;;;;;6.30;99.90;;;-146.41;100.00;57768.22;4977158;28;1217;-70
2024/01/30 03:03:09;;;;;;;;;;;6.00;99.90;;;-146.41;100.00;57768.22;4977043;28;1325;-70
2024/01/30 03:05:36;;;;;;;;;;;5.80;99.90;;;-146.41;100.00;57768.22;4994109;28;1339;-70
2024/01/30 03:08:04;;;;;;;;;;;5.50;99.90;;;-146.41;100.00;57768.22;4978236;28;1425;-70
2024/01/30 03:10:31;;;;;;;;;;;5.20;99.90;;;-146.41;100.00;57768.22;4982557;28;1260;-72
2024/01/30 03:12:58;;;;;;;;;;;5.00;99.90;;;-146.41;100.00;57768.22;4995462;28;1983;-72
2024/01/30 03:15:25;;;;;;;;;;;4.80;99.90;;;-146.41;100.00;57768.22;4964391;28;1300;-72
2024/01/30 03:17:53;;;;;;;;;;;4.60;99.90;;;-146.41;100.00;57768.22;4993141;28;1473;-73
2024/01/30 03:20:20;;;;;;;;;;;4.50;99.90;;;-146.41;100.00;57768.22;4981673;28;1415;-72
2024/01/30 03:22:47;;;;;;;;;;;4.40;99.90;;;-146.41;100.00;57768.22;4979827;28;1251;-73
2024/01/30 03:25:14;;;;;;;;;;;4.30;99.90;;;-146.41;100.00;57768.22;4977480;28;1292;-72
2024/01/30 03:27:41;;;;;;;;;;;4.30;99.90;;;-146.41;100.00;57768.22;4973736;28;1216;-71
2024/01/30 03:30:08;;;;;;;;;;;4.20;99.90;;;-146.41;100.00;57768.22;4994550;28;1339;-72
2024/01/30 03:32:35;;;;;;;;;;;4.30;99.90;;;-146.41;100.00;57768.22;4986271;28;1993;-72
2024/01/30 03:35:02;;;;;;;;;;;4.40;99.90;;;-146.41;100.00;57768.22;4985007;28;1284;-72
2024/01/30 03:37:29;;;;;;;;;;;4.50;99.90;;;-146.41;100.00;57768.22;4997535;28;1403;-72
2024/01/30 03:39:56;;;;;;;;;;;4.60;99.90;;;-146.41;100.00;57768.22;4982784;28;1406;-72
2024/01/30 03:42:24;;;;;;;;;;;4.90;99.90;;;-146.41;100.00;57768.22;4999347;28;1307;-72
2024/01/30 03:44:54;;;;;;;;;;;5.10;99.90;;;-146.41;100.00;57768.22;4982575;28;1398;-72
2024/01/30 03:47:21;;;;;;;;;;;5.30;99.90;;;-146.41;100.00;57768.22;4984019;28;1331;-72
2024/01/30 03:49:49;;;;;;;;;;;5.40;99.90;;;-146.41;100.00;57768.22;4981312;28;1280;-72
2024/01/30 03:52:16;;;;;;;;;;;5.60;99.90;;;-146.41;100.00;57768.22;4982759;28;1286;-72
2024/01/30 03:54:42;;;;;;;;;;;5.80;99.90;;;-146.41;100.00;57768.22;4995362;28;1979;-70
2024/01/30 03:57:09;;;;;;;;;;;5.90;99.90;;;-146.41;100.00;57768.22;4981780;28;1331;-71
2024/01/30 03:59:36;;;;;;;;;;;6.10;99.90;;;-146.41;100.00;57768.22;4984137;28;1376;-72
2024/01/30 04:02:04;;;;;;;;;;;6.20;99.90;;;-146.41;100.00;57768.22;4984009;28;1399;-73
2024/01/30 04:04:31;;;;;;;;;;;6.20;99.90;;;-146.41;100.00;57768.22;4981661;28;1332;-70
2024/01/30 04:06:58;;;;;;;;;;;6.20;99.90;;;-146.41;100.00;57768.22;4980511;28;1320;-72
2024/01/30 04:09:26;;;;;;;;;;;6.20;99.90;;;-146.41;100.00;57768.22;4982837;28;1212;-72
2024/01/30 04:11:53;;;;;;;;;;;6.20;99.90;;;-146.41;100.00;57768.22;4999217;28;1561;-72
2024/01/30 04:14:20;;;;;;;;;;;6.20;99.90;;;-146.41;100.00;57768.22;4983205;28;1931;-70
2024/01/30 04:16:47;;;;;;;;;;;6.20;99.90;;;-146.41;100.00;57768.22;5009001;28;1235;-72
2024/01/30 04:19:14;;;;;;;;;;;6.20;99.90;;;-146.41;100.00;57768.22;4981972;28;1256;-72
2024/01/30 04:21:41;;;;;;;;;;;6.20;99.90;;;-146.41;100.00;57768.22;4984074;28;1405;-72
2024/01/30 04:24:08;;;;;;;;;;;6.20;99.90;;;-146.41;100.00;57768.22;4980976;28;1234;-72
2024/01/30 04:26:36;;;;;;;;;;;6.30;99.90;;;-146.41;100.00;57768.22;4982092;28;1339;-72
2024/01/30 04:29:03;;;;;;;;;;;6.30;99.90;;;-146.41;100.00;57768.22;4984243;28;1223;-72
2024/01/30 04:31:30;;;;;;;;;;;6.30;99.90;;;-146.41;100.00;57768.22;4980550;28;1487;-74
2024/01/30 04:33:57;;;;;;;;;;;6.30;99.90;;;-146.41;100.00;57768.22;4979518;28;1993;-73
2024/01/30 04:36:24;;;;;;;;;;;6.30;99.90;;;-146.41;100.00;57768.22;4984445;28;1224;-72
2024/01/30 04:38:51;;;;;;;;;;;6.20;99.90;;;-146.41;100.00;57768.22;4981166;28;1209;-72
2024/01/30 04:41:18;;;;;;;;;;;6.30;99.90;;;-146.41;100.00;57768.22;4979737;28;1362;-72
2024/01/30 04:43:46;;;;;;;;;;;6.20;99.90;;;-146.41;100.00;57768.22;4980340;28;1874;-73
2024/01/30 04:46:12;;;;;;;;;;;6.20;99.90;;;-146.41;100.00;57768.22;4979951;28;1207;-72
2024/01/30 04:48:39;;;;;;;;;;;6.30;99.90;;;-146.41;100.00;57768.22;4981417;28;1035;-73
2024/01/30 04:51:06;;;;;;;;;;;6.30;99.90;;;-146.41;100.00;57768.22;4981873;28;1279;-71
2024/01/30 04:53:33;;;;;;;;;;;6.30;99.90;;;-146.41;100.00;57768.22;4983429;28;1902;-72
2024/01/30 04:56:01;;;;;;;;;;;6.30;99.90;;;-146.41;100.00;57768.22;4979022;28;1365;-72
2024/01/30 04:58:27;;;;;;;;;;;6.30;99.90;;;-146.41;100.00;57768.22;4995928;28;1207;-72
2024/01/30 05:00:55;;;;;;;;;;;6.30;99.90;;;-146.41;100.00;57768.22;4980382;28;1235;-71
2024/01/30 05:03:24;;;;;;;;;;;6.30;99.90;;;-146.41;100.00;57768.22;4982112;28;1353;-73
2024/01/30 05:05:51;;;;;;;;;;;6.30;99.90;;;-146.41;100.00;57768.22;4994560;28;1482;-72
2024/01/30 05:08:18;;;;;;;;;;;6.30;99.90;;;-146.41;100.00;57768.22;4979581;28;1260;-72
2024/01/30 05:10:47;;;;;;;;;;;6.40;99.90;;;-146.41;100.00;57768.22;4981113;28;1412;-72
2024/01/30 05:13:14;;;;;;;;;;;6.30;99.90;;;-146.41;100.00;57768.22;4980584;28;1926;-71
2024/01/30 05:15:41;;;;;;;;;;;6.30;99.90;;;-146.41;100.00;57768.22;4978441;28;1388;-72
2024/01/30 05:18:08;;;;;;;;;;;6.40;99.90;;;-146.41;100.00;57768.22;4980896;28;1026;-71
2024/01/30 05:20:35;;;;;;;;;;;6.40;99.90;;;-146.41;100.00;57768.22;4979222;28;1117;-72
2024/01/30 05:23:02;;;;;;;;;;;6.40;99.90;;;-146.41;100.00;57768.22;4981752;28;1255;-72
2024/01/30 05:25:29;;;;;;;;;;;6.40;99.90;;;-146.41;100.00;57768.22;4980741;28;1265;-73
2024/01/30 05:27:56;;;;;;;;;;;6.40;99.90;;;-146.41;100.00;57768.22;4976801;28;1299;-71
2024/01/30 05:30:23;;;;;;;;;;;6.40;99.90;;;-146.41;100.00;57768.22;4979595;28;1240;-72
2024/01/30 05:32:50;;;;;;;;;;;6.40;99.90;;;-146.41;100.00;57768.22;4982974;28;1314;-71
2024/01/30 05:35:17;;;;;;;;;;;6.40;99.90;;;-146.41;100.00;57768.22;4983430;28;1987;-72
2024/01/30 05:37:44;;;;;;;;;;;6.30;99.90;;;-146.41;100.00;57768.22;4979489;28;1318;-72
2024/01/30 05:40:11;;;;;;;;;;;6.40;99.90;;;-146.41;100.00;57768.22;4982388;28;1210;-72
2024/01/30 05:42:38;;;;;;;;;;;6.30;99.90;;;-146.41;100.00;57768.22;4976719;28;1335;-72
2024/01/30 05:45:05;;;;;;;;;;;6.30;99.90;;;-146.41;100.00;57768.22;4979890;28;1279;-72
2024/01/30 05:47:32;;;;;;;;;;;6.30;99.90;;;-146.41;100.00;57768.22;4995371;28;1430;-71
2024/01/30 05:49:59;;;;;;;;;;;6.30;99.90;;;-146.41;100.00;57768.22;4984808;28;1402;-71
2024/01/30 05:52:26;;;;;;;;;;;6.30;99.90;;;-146.41;100.00;57768.22;4980272;28;1362;-71
2024/01/30 05:54:53;;;;;;;;;;;6.30;99.90;;;-146.41;100.00;57768.22;4978531;28;1908;-72
2024/01/30 05:57:20;;;;;;;;;;;6.30;99.90;;;-146.41;100.00;57768.22;4993756;28;1410;-72
2024/01/30 05:59:47;;;;;;;;;;;6.30;99.90;;;-146.41;100.00;57768.22;4976636;28;1620;-72
2024/01/30 06:02:14;;;;;;;;;;;6.20;99.90;;;-146.41;100.00;57768.22;4982656;28;1263;-72
2024/01/30 06:04:42;;;;;;;;;;;6.20;99.90;;;-146.41;100.00;57768.22;4978994;28;1391;-72
2024/01/30 06:07:09;;;;;;;;;;;6.20;99.90;;;-146.41;100.00;57768.22;4980357;28;1365;-72
2024/01/30 06:09:36;;;;;;;;;;;6.20;99.90;;;-146.41;100.00;57768.22;4980834;28;1153;-73
2024/01/30 06:12:04;;;;;;;;;;;6.10;99.90;;;-146.41;100.00;57768.22;5007073;28;1296;-72
2024/01/30 06:14:32;;;;;;;;;;;6.10;99.90;;;-146.41;100.00;57768.22;4990458;28;1977;-72
2024/01/30 06:16:59;;;;;;;;;;;6.10;99.90;;;-146.41;100.00;57768.22;4978961;28;1065;-72
2024/01/30 06:19:26;;;;;;;;;;;6.10;99.90;;;-146.41;100.00;57768.22;4977699;28;1206;-72
2024/01/30 06:21:54;;;;;;;;;;;5.90;99.90;;;-146.41;100.00;57768.22;4975242;28;1162;-72
2024/01/30 06:24:21;;;;;;;;;;;5.90;99.90;;;-146.41;100.00;57768.22;4991371;28;1213;-73
2024/01/30 06:26:49;;;;;;;;;;;5.80;99.90;;;-146.41;100.00;57768.22;4979940;28;1249;-72
2024/01/30 06:29:16;;;;;;;;;;;5.80;99.90;;;-146.41;100.00;57768.22;4977507;28;1200;-72
2024/01/30 06:31:46;;;;;;;;;;;5.70;99.90;;;-146.41;100.00;57768.22;4978829;28;1122;-71
2024/01/30 06:34:13;;;;;;;;;;;5.70;99.90;;;-146.41;100.00;57768.22;4974661;28;1923;-72
2024/01/30 06:36:40;;;;;;;;;;;5.70;99.90;;;-146.41;100.00;57768.22;4976818;28;1121;-72
2024/01/30 06:39:07;;;;;;;;;;;5.70;99.90;;;-146.41;100.00;57768.22;4981589;28;1558;-72
2024/01/30 06:41:34;;;;;;;;;;;5.60;99.90;;;-146.41;100.00;57768.22;4981190;28;1066;-72
2024/01/30 06:44:06;;;;;;;;;;;5.60;99.90;;;-146.41;100.00;57768.22;4992471;28;1221;-72
2024/01/30 06:46:33;;;;;;;;;;;5.70;99.90;;;-146.41;100.00;57768.22;4979867;28;1305;-72
2024/01/30 06:49:00;;;;;;;;;;;5.80;99.90;;;-146.41;100.00;57768.22;4979502;28;1047;-73
2024/01/30 06:51:27;;;;;;;;;;;5.80;99.90;;;-146.41;100.00;57768.22;4978692;28;1175;-72
2024/01/30 06:53:53;;;;;;;;;;;5.80;99.90;;;-146.41;100.00;57768.22;4978969;28;1899;-72
2024/01/30 06:56:20;;;;;;;;;;;5.80;99.90;;;-146.41;100.00;57768.22;4977939;28;1154;-72
2024/01/30 06:58:48;;;;;;;;;;;5.90;99.90;;;-146.41;100.00;57768.22;5011486;28;1180;-73
2024/01/30 07:01:15;;;;;;;;;;;5.90;99.90;;;-146.41;100.00;57768.22;4981544;28;1114;-72
2024/01/30 07:03:43;;;;;;;;;;;5.90;99.90;;;-146.41;100.00;57768.22;4975723;28;1336;-73
2024/01/30 07:06:13;;;;;;;;;;;5.90;99.90;;;-146.41;100.00;57768.22;4995461;28;1239;-72
2024/01/30 07:08:40;;;;;;;;;;;5.80;99.90;;;-146.41;100.00;57768.22;4976975;28;1264;-72
2024/01/30 07:11:07;;;;;;;;;;;5.80;99.90;;;-146.41;100.00;57768.22;4975522;28;1118;-72
2024/01/30 07:13:34;;;;;;;;;;;5.80;99.90;;;-146.41;100.00;57768.22;4993045;28;1891;-72
2024/01/30 07:16:01;;;;;;;;;;;5.90;99.90;;;-146.41;100.00;57768.22;4978462;28;1184;-72
2024/01/30 07:18:28;;;;;;;;;;;5.90;99.90;;;-146.41;100.00;57768.22;5007394;28;1066;-72
2024/01/30 07:20:55;;;;;;;;;;;6.00;99.90;;;-146.41;100.00;57768.22;4991449;28;1038;-71
2024/01/30 07:23:22;;;;;;;;;;;6.00;99.90;;;-146.41;100.00;57768.22;5008990;28;1348;-72
2024/01/30 07:25:49;;;;;;;;;;;6.10;99.90;;;-146.41;100.00;57768.22;4988000;28;1383;-72
2024/01/30 07:28:17;;;;;;;;;;;6.10;99.90;;;-146.41;100.00;57768.22;4977820;28;1260;-72
2024/01/30 07:30:44;;;;;;;;;;;6.30;99.90;;;-146.41;100.00;57768.22;4978646;28;1060;-72
2024/01/30 07:33:12;;;;;;;;;;;6.30;99.90;;;-146.41;100.00;57768.22;4976832;28;1066;-72
2024/01/30 07:35:39;;;;;;;;;;;6.30;99.90;;;-146.41;100.00;57768.22;4975480;28;1975;-72
2024/01/30 07:38:07;;;;;;;;;;;6.20;99.90;;;-146.41;100.00;57768.22;4974119;28;1081;-72
2024/01/30 07:40:34;;;;;;;;;;;6.20;99.90;;;-146.41;100.00;57768.22;4976862;28;1032;-72
2024/01/30 07:43:03;;;;;;;;;;;6.30;99.90;;;-146.41;100.00;57768.22;4978642;28;1033;-72
2024/01/30 07:45:33;;;;;;;;;;;6.40;99.90;;;-146.41;100.00;57768.22;4980970;28;1320;-72
2024/01/30 07:48:00;;;;;;;;;;;6.40;99.90;;;-146.41;100.00;57768.22;4978099;28;1134;-72
2024/01/30 07:50:27;;;;;;;;;;;6.40;99.90;;;-146.41;100.00;57768.22;4979294;28;1126;-72
2024/01/30 07:52:56;;;;;;;;;;;6.50;99.90;;;-146.41;100.00;57768.22;4976850;28;1125;-72
2024/01/30 07:55:31;;;;;;;;;;;6.60;99.90;;;-146.41;100.00;57768.22;4991930;28;1934;-72
2024/01/30 07:57:59;;;;;;;;;;;6.60;99.90;;;-146.41;100.00;57768.22;4974897;28;1128;-72
2024/01/30 08:00:26;;;;;;;;;;;6.60;99.90;;;-146.41;100.00;57768.22;4978406;28;1038;-72
2024/01/30 08:02:55;;;;;;;;;;;6.60;99.90;;;-146.41;100.00;57768.22;4980477;28;1018;-73
2024/01/30 08:05:23;;;;;;;;;;;6.70;99.90;;;-146.41;100.00;57768.22;4976662;28;1431;-72
2024/01/30 08:07:50;;;;;;;;;;;6.70;99.90;;;-146.41;100.00;57768.22;4970735;28;1125;-72
2024/01/30 08:10:18;;;;;;;;;;;6.70;99.90;;;-146.41;100.00;57768.22;4980142;28;1141;-72
2024/01/30 08:12:46;;;;;;;;;;;6.80;99.90;;;-146.41;100.00;57768.22;4975135;28;1069;-72
2024/01/30 08:15:13;;;;;;;;;;;6.80;99.90;;;-146.41;100.00;57768.22;5006640;28;1906;-72
2024/01/30 08:17:40;;;;;;;;;;;6.90;99.90;;;-146.41;100.00;57768.22;4981207;28;1250;-73
2024/01/30 08:20:08;;;;;;;;;;;6.90;99.90;;;-146.41;100.00;57768.22;4979818;28;1046;-72
2024/01/30 08:22:37;;;;;;;;;;;7.00;99.90;;;-146.41;100.00;57768.22;4975756;28;1074;-72
2024/01/30 08:25:05;;;;;;;;;;;7.00;99.90;;;-146.41;100.00;57768.22;4977401;28;1340;-72
2024/01/30 08:27:32;;;;;;;;;;;7.00;99.90;;;-146.41;100.00;57768.22;4977755;28;1068;-72
2024/01/30 08:29:59;;;;;;;;;;;7.00;99.90;;;-146.41;100.00;57768.22;5008953;28;1126;-70
2024/01/30 08:32:26;;;;;;;;;;;7.00;99.90;;;-146.41;100.00;57768.22;5007810;28;1038;-72
2024/01/30 08:34:53;;;;;;;;;;;7.10;99.90;;;-146.41;100.00;57768.22;4977695;28;1979;-70
2024/01/30 08:37:20;;;;;;;;;;;7.10;99.90;;;-146.41;100.00;57768.22;4977311;28;1114;-72
2024/01/30 08:39:47;;;;;;;;;;;7.10;99.90;;;-146.41;100.00;57768.22;4980643;28;1342;-72
2024/01/30 08:42:14;;;;;;;;;;;7.10;99.90;;;-146.41;100.00;57768.22;4976310;28;1482;-73
2024/01/30 08:44:41;;;;;;;;;;;7.10;99.90;;;-146.41;100.00;57768.22;4978923;28;1340;-72
2024/01/30 08:47:08;;;;;;;;;;;7.20;99.90;;;-146.41;100.00;57768.22;4979477;28;1097;-72
2024/01/30 08:49:34;;;;;;;;;;;7.20;99.90;;;-146.41;100.00;57768.22;4980768;28;1131;-70
2024/01/30 08:52:01;;;;;;;;;;;7.20;99.90;;;-146.41;100.00;57768.22;4994880;28;1055;-73
2024/01/30 08:54:28;;;;;;;;;;;7.20;99.90;;;-146.41;100.00;57768.22;4963188;28;1899;-72
2024/01/30 08:56:56;;;;;;;;;;;7.20;99.90;;;-146.41;100.00;57768.22;4979400;28;1174;-72
2024/01/30 08:59:23;;;;;;;;;;;7.30;99.90;;;-146.41;100.00;57768.22;4979687;28;1044;-73
2024/01/30 09:01:53;;;;;;;;;;;7.40;99.90;;;-146.41;100.00;57768.22;4977280;28;1049;-73
2024/01/30 09:04:36;;;;;;;;;;;7.50;99.90;;;-146.41;100.00;57768.22;4981222;28;1477;-73
2024/01/30 09:07:05;;;;;;;;;;;7.50;99.90;;;-146.41;100.00;57768.22;4977561;28;1079;-72
2024/01/30 09:09:32;;;;;;;;;;;7.60;99.90;;;-146.41;100.00;57768.22;4980356;28;1107;-72
2024/01/30 09:12:04;;;;;;;;;;;7.60;99.90;;;-146.41;100.00;57768.22;4980236;28;1817;-73
2024/01/30 09:14:31;;;;;;;;;;;7.70;99.90;;;-146.41;100.00;57768.22;4979639;28;1977;-72
2024/01/30 09:16:58;;;;;;;;;;;7.70;99.90;;;-146.41;100.00;57768.22;4979155;28;1528;-70
2024/01/30 09:19:24;;;;;;;;;;;7.80;99.90;;;-146.41;100.00;57768.22;4979259;28;1065;-72
2024/01/30 09:21:51;;;;;;;;;;;7.80;99.90;;;-146.41;100.00;57768.22;4980502;28;1198;-73
2024/01/30 09:24:18;;;;;;;;;;;7.80;99.90;;;-146.41;100.00;57768.22;4975838;28;1346;-70
2024/01/30 09:26:45;;;;;;;;;;;8.00;99.90;;;-146.41;100.00;57768.22;4977556;28;1170;-73
2024/01/30 09:29:12;;;;;;;;;;;8.00;99.90;;;-146.41;100.00;57768.22;4978514;28;1173;-70
2024/01/30 09:31:39;;;;;;;;;;;8.00;99.90;;;-146.41;100.00;57768.22;4982665;28;1059;-72
2024/01/30 09:34:06;;;;;;;;;;;8.00;99.90;;;-146.41;100.00;57768.22;4981831;28;1946;-73
2024/01/30 09:36:32;;;;;;;;;;;8.10;99.90;;;-146.41;100.00;57768.22;4979361;28;1362;-70
2024/01/30 09:39:00;;;;;;;;;;;8.10;99.90;;;-146.41;100.00;57768.22;4973365;28;1070;-70
2024/01/30 09:41:27;;;;;;;;;;;8.20;99.90;;;-146.41;100.00;57768.22;4976240;28;1083;-70
2024/01/30 09:43:56;;;;;;;;;;;8.00;99.90;;;-146.41;100.00;57768.22;4977246;28;1316;-70
2024/01/30 09:46:27;;;;;;;;;;;8.20;99.90;;;-146.41;100.00;57768.22;4978398;28;1128;-70
2024/01/30 09:48:55;;;;;;;;;;;8.20;99.90;;;-146.41;100.00;57768.22;4992608;28;1214;-70
2024/01/30 09:51:22;;;;;;;;;;;8.20;99.90;;;-146.41;100.00;57768.22;4978604;28;1229;-71
2024/01/30 09:53:49;;;;;;;;;;;8.20;99.90;;;-146.41;100.00;57768.22;4980580;28;1630;-70
2024/01/30 09:56:16;;;;;;;;;;;8.20;99.90;;;-146.41;100.00;57768.22;4980704;28;1919;-70
2024/01/30 09:58:43;;;;;;;;;;;8.30;99.90;;;-146.41;100.00;57768.22;4974533;28;1049;-71
2024/01/30 10:01:10;;;;;;;;;;;8.40;99.90;;;-146.41;100.00;57768.22;4979744;28;1328;-71
2024/01/30 10:03:37;;;;;;;;;;;8.30;99.90;;;-146.41;100.00;57768.22;4976756;28;1087;-71
2024/01/30 10:06:05;;;;;;;;;;;8.40;99.90;;;-146.41;100.00;57768.22;4992275;28;1307;-70
2024/01/30 10:08:33;;;;;;;;;;;8.40;99.90;;;-146.41;100.00;57768.22;4980338;28;1430;-70
2024/01/30 10:11:01;;;;;;;;;;;8.40;99.90;;;-146.41;100.00;57768.22;4974127;28;1401;-71
2024/01/30 10:13:28;;;;;;;;;;;8.40;99.90;;;-146.41;100.00;57768.22;4990593;28;1053;-71
2024/01/30 10:15:56;;;;;;;;;;;8.50;99.90;;;-146.41;100.00;57768.22;4980263;28;1931;-70
2024/01/30 10:18:24;;;;;;;;;;;8.50;99.90;;;-146.41;100.00;57768.22;4975902;28;1295;-71
2024/01/30 10:20:52;;;;;;;;;;;8.50;99.90;;;-146.41;100.00;57768.22;4975380;28;1070;-71
2024/01/30 10:23:19;;;;;;;;;;;8.40;99.90;;;-146.41;100.00;57768.22;4977241;28;1259;-71
2024/01/30 10:25:46;;;;;;;;;;;8.40;99.90;;;-146.41;100.00;57768.22;4977973;28;1308;-70
2024/01/30 10:28:13;;;;;;;;;;;8.50;99.90;;;-146.41;100.00;57768.22;4978651;28;1311;-71
2024/01/30 10:30:40;;;;;;;;;;;8.40;99.90;;;-146.41;100.00;57768.22;5006866;28;1318;-71
2024/01/30 10:33:07;;;;;;;;;;;8.40;99.90;;;-146.41;100.00;57768.22;4981114;28;2000;-71
2024/01/30 10:35:34;;;;;;;;;;;8.50;99.90;;;-146.41;100.00;57768.22;4979524;28;1908;-70
2024/01/30 10:38:01;;;;;;;;;;;8.60;99.90;;;-146.41;100.00;57768.22;4975451;28;1287;-71
2024/01/30 10:40:29;;;;;;;;;;;8.60;99.90;;;-146.41;100.00;57768.22;5008438;28;1287;-71
2024/01/30 10:42:56;;;;;;;;;;;8.60;99.90;;;-146.41;100.00;57768.22;4975205;28;1223;-70
2024/01/30 10:45:26;;;;;;;;;;;8.70;99.90;;;-146.41;100.00;57768.22;4976494;28;1437;-71
2024/01/30 10:47:57;;;;;;;;;;;8.60;99.90;;;-146.41;100.00;57768.22;4990842;28;1117;-70
2024/01/30 10:50:25;;;;;;;;;;;8.60;99.90;;;-146.41;100.00;57768.22;4992828;28;1314;-71
2024/01/30 10:52:53;;;;;;;;;;;8.70;99.90;;;-146.41;100.00;57768.22;4976956;28;1264;-70
2024/01/30 10:55:21;;;;;;;;;;;8.70;99.90;;;-146.41;100.00;57768.22;4966008;28;1946;-70
2024/01/30 10:57:49;;;;;;;;;;;8.70;99.90;;;-146.41;100.00;57768.22;4980497;28;1094;-70
2024/01/30 11:00:16;;;;;;;;;;;8.70;99.90;;;-146.41;100.00;57768.22;4979380;28;1365;-70
2024/01/30 11:02:44;;;;;;;;;;;8.70;99.90;;;-146.41;100.00;57768.22;4975476;28;1103;-70
2024/01/30 11:05:12;;;;;;;;;;;8.80;99.90;;;-146.41;100.00;57768.22;4974911;28;1300;-70
2024/01/30 11:07:42;;;;;;;;;;;8.80;99.90;;;-146.41;100.00;57768.22;5009314;28;1077;-70
2024/01/30 11:10:14;;;;;;;;;;;8.80;99.90;;;-146.41;100.00;57768.22;4980901;28;1278;-71